Europa — C6QK8 — position and weather

sailwx.info

Track history (hours):
 
Tides and Currents Weather Stations Pressure Air Temp Water Temp Dewpoint Dewpoint Depression Visibility Wind Speed Wind Dir Waves Ship Positions

Europa

Operator: Hapag-Lloyd Container Line

Last reported at 2017-May-15 11:46 UTC. Time now 2017-May-28 06:45 UTC.
Position N 52°44' W 129°04'.
Warning: this ship's position is 12 days out of date.

Length 199 m; draft 6.3 m.

Type: Passenger vessel. MMSI: 308007000.

Date/timePositionNaut miles runAvg speedWind from/ knotsBaromVisibWave heightAir tempDewpointWater temp
2017-May-15 11:46N 52°44' W 129°04'516.9
2017-May-15 11:30N 52°40' W 128°58'816.5
2017-May-15 11:00N 52°33' W 128°53'816.5
2017-May-15 10:30N 52°25' W 128°51'816.1
2017-May-15 10:00N 52°17' W 128°49'5 9.1
2017-May-15 09:30N 52°12' W 128°48'4 8.9
2017-May-15 09:00N 52°08' W 128°47'5 9.1
2017-May-15 08:30N 52°04' W 128°46'4 8.9
2017-May-15 08:00N 51°59' W 128°44'4 8.7
2017-May-15 07:30N 51°55' W 128°43'4 8.7
2017-May-15 07:00N 51°51' W 128°42'4 8.8
2017-May-15 06:30N 51°46' W 128°40'4 8.8
2017-May-15 06:00N 51°42' W 128°39'4 7.8
2017-May-15 05:30N 51°39' W 128°35'4 7.1
2017-May-15 05:00N 51°37' W 128°31'4 7.3
2017-May-15 04:30N 51°33' W 128°28'4 8.0
2017-May-15 04:00N 51°30' W 128°27'4 8.3
2017-May-15 03:30N 51°26' W 128°25'4 8.5
2017-May-15 03:00N 51°21' W 128°23'4 8.5
2017-May-15 02:30N 51°17' W 128°21'4 8.3
2017-May-15 02:00N 51°14' W 128°18'4 8.4
2017-May-15 01:30N 51°11' W 128°12'4 8.3
2017-May-15 01:00N 51°09' W 128°07'4 8.3
2017-May-15 00:30N 51°06' W 128°02'4 8.3
2017-May-15 00:00N 51°04' W 127°57'4 8.1
2017-May-14 23:30N 51°01' W 127°52'611.2
2017-May-14 23:00N 50°58' W 127°45'815.7
2017-May-14 22:30N 50°53' W 127°35'815.8
2017-May-14 22:00N 50°48' W 127°25'816.3
2017-May-14 21:30N 50°42' W 127°16'815.9
2017-May-14 21:00N 50°37' W 127°06'610.9
2017-May-14 20:29N 50°35' W 126°58'5 9.0
2017-May-14 19:54N 50°34' W 126°50'513.1
2017-May-14 19:30N 50°32' W 126°42'3614.0
2017-May-14 16:54N 50°23' W 125°47'914.5
2017-May-14 16:18N 50°22' W 125°33'515.5
2017-May-14 16:00N 50°20' W 125°27'713.6
2017-May-14 15:30N 50°14' W 125°23'713.3
2017-May-14 15:01N 50°08' W 125°21'612.8
2017-May-14 14:30N 50°03' W 125°14'1110.4
2017-May-14 13:30N 49°54' W 125°04'510.1
2017-May-14 13:00N 49°51' W 124°59'510.1
2017-May-14 12:30N 49°48' W 124°53'510.1
2017-May-14 12:00N 49°44' W 124°48'510.4
2017-May-14 11:30N 49°40' W 124°42'510.8
2017-May-14 11:00N 49°36' W 124°37'510.1
2017-May-14 10:30N 49°32' W 124°32'510.0
2017-May-14 10:00N 49°28' W 124°27'1610.4
2017-May-14 08:29N 49°22' W 124°04'510.0
2017-May-14 07:59N 49°21' W 123°57'5 9.9
2017-May-14 07:30N 49°20' W 123°50'510.2
2017-May-14 07:00N 49°19' W 123°42'510.3
2017-May-14 06:30N 49°19' W 123°34'510.3
2017-May-14 06:00N 49°19' W 123°26'510.7
2017-May-14 05:30N 49°19' W 123°18'510.8
2017-May-14 05:00N 49°19' W 123°10'3 5.2
2017-May-14 04:30N 49°17' W 123°07'0 0.0
2017-May-14 04:00N 49°17' W 123°07'0 0.0
2017-May-14 03:30N 49°17' W 123°07'0 0.0
2017-May-14 03:00N 49°17' W 123°07'0 0.0
2017-May-14 02:30N 49°17' W 123°07'0 0.0
2017-May-14 02:00N 49°17' W 123°07'0 0.6
2017-May-14 01:31N 49°18' W 123°06'0 0.8
2017-May-14 00:59N 49°18' W 123°06'0 0.2
2017-May-14 00:29N 49°18' W 123°06'0 0.0
2017-May-13 23:59N 49°18' W 123°06'0 0.1
2017-May-13 23:29N 49°18' W 123°06'0 0.1
2017-May-13 22:59N 49°18' W 123°06'0 0.0
2017-May-13 22:29N 49°18' W 123°06'0 0.1
2017-May-13 21:59N 49°18' W 123°06'0 0.0
2017-May-13 21:29N 49°18' W 123°06'0 0.0
2017-May-13 20:59N 49°18' W 123°06'0 0.1
2017-May-13 20:29N 49°18' W 123°06'0 0.0
2017-May-13 19:59N 49°18' W 123°06'0 0.0
2017-May-13 19:29N 49°18' W 123°06'0 0.2
2017-May-13 18:59N 49°18' W 123°06'0 0.0
2017-May-13 18:29N 49°18' W 123°06'0 0.1
2017-May-13 17:59N 49°18' W 123°06'0 0.0
2017-May-13 17:29N 49°18' W 123°06'0 0.0
2017-May-13 16:56N 49°18' W 123°06'0 0.1
2017-May-13 16:30N 49°18' W 123°06'3 6.6
2017-May-13 16:00N 49°19' W 123°10'1 2.7
2017-May-13 15:30N 49°20' W 123°12'0 0.0
2017-May-13 15:00N 49°20' W 123°12'0 0.3
2017-May-13 14:31N 49°20' W 123°12'4 4.3
2017-May-13 13:30N 49°18' W 123°06'1 1.0
2017-May-13 13:00N 49°18' W 123°06'1 1.1
2017-May-13 12:29N 49°17' W 123°07'0 0.0
2017-May-13 11:59N 49°17' W 123°07'0 0.0
2017-May-13 11:29N 49°17' W 123°07'0 0.0
2017-May-13 10:59N 49°17' W 123°07'0 0.0
2017-May-13 10:29N 49°17' W 123°07'0 0.0
2017-May-13 09:59N 49°17' W 123°07'0 0.0
2017-May-13 09:29N 49°17' W 123°07'0 0.0
2017-May-13 08:59N 49°17' W 123°07'0 0.0
2017-May-13 08:29N 49°17' W 123°07'0 0.0
2017-May-13 07:59N 49°17' W 123°07'0 0.0
2017-May-13 07:29N 49°17' W 123°07'0 0.0
2017-May-13 06:59N 49°17' W 123°07'0 0.0
2017-May-13 06:29N 49°17' W 123°07'0 0.0
2017-May-13 05:59N 49°17' W 123°07'0 0.0
2017-May-13 05:29N 49°17' W 123°07'0 0.0
2017-May-13 04:59N 49°17' W 123°07'0 0.0
2017-May-13 04:29N 49°17' W 123°07'0 0.0
2017-May-13 03:59N 49°17' W 123°07'0 0.0
2017-May-13 03:29N 49°17' W 123°07'0 0.0
2017-May-13 02:59N 49°17' W 123°07'0 0.0
2017-May-13 02:29N 49°17' W 123°07'0 0.0
2017-May-13 01:59N 49°17' W 123°07'0 0.0
2017-May-13 01:29N 49°17' W 123°07'0 0.0
2017-May-13 00:59N 49°17' W 123°07'0 0.0
2017-May-13 00:29N 49°17' W 123°07'0 0.0
2017-May-12 23:59N 49°17' W 123°07'0 0.0
2017-May-12 23:29N 49°17' W 123°07'0 0.0
2017-May-12 22:59N 49°17' W 123°07'0 0.0
2017-May-12 22:29N 49°17' W 123°07'0 0.0
2017-May-12 21:59N 49°17' W 123°07'0 0.0
2017-May-12 21:29N 49°17' W 123°07'0 0.0
2017-May-12 20:59N 49°17' W 123°07'0 0.0
2017-May-12 20:29N 49°17' W 123°07'0 0.0
2017-May-12 19:59N 49°17' W 123°07'0 0.0
2017-May-12 19:29N 49°17' W 123°07'0 0.0
2017-May-12 18:59N 49°17' W 123°07'0 0.0
2017-May-12 18:29N 49°17' W 123°07'0 0.0
2017-May-12 17:59N 49°17' W 123°07'0 0.0
2017-May-12 17:29N 49°17' W 123°07'0 0.0
2017-May-12 16:59N 49°17' W 123°07'0 0.0
2017-May-12 16:29N 49°17' W 123°07'0 0.0
2017-May-12 15:59N 49°17' W 123°07'0 0.0
2017-May-12 15:29N 49°17' W 123°07'0 0.0
2017-May-12 14:59N 49°17' W 123°07'0 0.0
2017-May-12 14:29N 49°17' W 123°07'2 1.8
2017-May-12 13:30N 49°19' W 123°08'5 9.6
2017-May-12 13:00N 49°18' W 123°16'5 9.8
2017-May-12 12:30N 49°14' W 123°19'510.1
2017-May-12 12:01N 49°09' W 123°20'510.3
2017-May-12 11:30N 49°04' W 123°20'611.1
2017-May-12 11:01N 48°60' W 123°14'713.1
2017-May-12 10:30N 48°55' W 123°07'714.0
2017-May-12 10:01N 48°49' W 123°01'612.6
2017-May-12 09:30N 48°44' W 123°07'713.5
2017-May-12 09:01N 48°40' W 123°15'816.6
2017-May-12 08:31N 48°32' W 123°12'815.1
2017-May-12 08:01N 48°25' W 123°11'714.5
2017-May-12 07:30N 48°22' W 123°21'3 6.5
2017-May-12 07:00N 48°25' W 123°24'0 0.3
2017-May-12 06:29N 48°25' W 123°23'0 0.0
2017-May-12 05:59N 48°25' W 123°23'0 0.0
2017-May-12 05:29N 48°25' W 123°23'0 0.0
2017-May-12 04:59N 48°25' W 123°23'0 0.0
2017-May-12 04:29N 48°25' W 123°23'0 0.0
2017-May-12 03:59N 48°25' W 123°23'0 0.0
2017-May-12 03:26N 48°25' W 123°23'0 0.0
2017-May-12 02:59N 48°25' W 123°23'0 0.0
2017-May-12 02:29N 48°25' W 123°23'0 0.0
2017-May-12 01:59N 48°25' W 123°23'0 0.0
2017-May-12 01:29N 48°25' W 123°23'0 0.0
2017-May-12 00:59N 48°25' W 123°23'0 0.0
2017-May-12 00:29N 48°25' W 123°23'0 0.0
2017-May-11 23:59N 48°25' W 123°23'0 0.0
2017-May-11 23:29N 48°25' W 123°23'0 0.0
2017-May-11 22:59N 48°25' W 123°23'0 0.0
2017-May-11 22:29N 48°25' W 123°23'0 0.0
2017-May-11 21:59N 48°25' W 123°23'0 0.0
2017-May-11 21:29N 48°25' W 123°23'0 0.0
2017-May-11 20:59N 48°25' W 123°23'0 0.0
2017-May-11 20:29N 48°25' W 123°23'0 0.0
2017-May-11 19:59N 48°25' W 123°23'0 0.0
2017-May-11 19:29N 48°25' W 123°23'0 0.0
2017-May-11 18:59N 48°25' W 123°23'0 0.0
2017-May-11 18:29N 48°25' W 123°23'0 0.0
2017-May-11 17:59N 48°25' W 123°23'0 0.0
2017-May-11 17:29N 48°25' W 123°23'0 0.0
2017-May-11 16:59N 48°25' W 123°23'0 0.0
2017-May-11 16:29N 48°25' W 123°23'0 0.0
2017-May-11 15:59N 48°25' W 123°23'0 0.0
2017-May-11 15:29N 48°25' W 123°23'0 0.0
2017-May-11 15:00N 48°25' W 123°23'0 0.2
2017-May-11 14:00N 48°25' W 123°24'2 4.8
2017-May-11 13:30N 48°23' W 123°23'2 3.8
2017-May-11 12:59N 48°21' W 123°22'0 0.0
2017-May-11 12:29N 48°21' W 123°22'0 0.0
2017-May-11 11:59N 48°21' W 123°22'0 0.0
2017-May-11 11:29N 48°21' W 123°22'0 0.0
2017-May-11 10:59N 48°21' W 123°22'0 0.0
2017-May-11 10:29N 48°21' W 123°22'0 0.0
2017-May-11 09:59N 48°21' W 123°22'0 0.0
2017-May-11 09:29N 48°21' W 123°22'0 0.1
2017-May-11 08:59N 48°21' W 123°22'0 0.0
2017-May-11 08:29N 48°21' W 123°22'0 0.0
2017-May-11 07:59N 48°21' W 123°22'0 1.0
2017-May-11 07:31N 48°20' W 123°22'0 0.5
2017-May-11 07:01N 48°20' W 123°22'3 5.0
2017-May-11 06:30N 48°18' W 123°24'4 7.7
2017-May-11 06:00N 48°15' W 123°27'3 6.3
2017-May-11 05:30N 48°12' W 123°25'4 8.7
2017-May-11 05:00N 48°09' W 123°21'714.7
2017-May-11 04:31N 48°12' W 123°11'917.6
2017-May-11 04:00N 48°12' W 122°58'917.9
2017-May-11 03:29N 48°10' W 122°44'817.8
2017-May-11 03:00N 48°02' W 122°38'917.6
2017-May-11 02:30N 47°55' W 122°30'917.4
2017-May-11 02:00N 47°47' W 122°26'816.0
2017-May-11 01:30N 47°39' W 122°27'5 9.2
2017-May-11 00:58N 47°37' W 122°21'0 0.1
2017-May-11 00:28N 47°37' W 122°21'0 0.0
2017-May-10 23:59N 47°37' W 122°21'0 0.0
2017-May-10 23:28N 47°37' W 122°21'0 0.0
2017-May-10 22:55N 47°37' W 122°21'0 0.0
2017-May-10 22:28N 47°37' W 122°21'0 0.0
2017-May-10 21:59N 47°37' W 122°21'0 0.0
2017-May-10 21:28N 47°37' W 122°21'0 0.0
2017-May-10 20:59N 47°37' W 122°21'0 0.0
2017-May-10 20:29N 47°37' W 122°21'0 0.0
2017-May-10 19:58N 47°37' W 122°21'0 0.0
2017-May-10 19:28N 47°37' W 122°21'0 0.0
2017-May-10 18:58N 47°37' W 122°21'0 0.0
2017-May-10 18:28N 47°37' W 122°21'0 0.0
2017-May-10 17:58N 47°37' W 122°21'0 0.0
2017-May-10 17:28N 47°37' W 122°21'0 0.0
2017-May-10 17:00N 47°37' W 122°21'0 0.0
2017-May-10 16:30N 47°37' W 122°21'0 0.0
2017-May-10 16:00N 47°37' W 122°21'0 0.0
2017-May-10 15:30N 47°37' W 122°21'0 0.0
2017-May-10 15:00N 47°37' W 122°21'6 5.6
2017-May-10 14:01N 47°39' W 122°28'612.7
2017-May-10 13:30N 47°46' W 122°27'713.1
2017-May-10 13:00N 47°52' W 122°29'611.9
2017-May-10 12:30N 47°57' W 122°34'816.3
2017-May-10 12:00N 48°04' W 122°39'916.9
2017-May-10 11:30N 48°11' W 122°48'917.6
2017-May-10 11:00N 48°12' W 123°01'816.9
2017-May-10 10:30N 48°11' W 123°13'714.3
2017-May-10 10:00N 48°10' W 123°24'4 7.7
2017-May-10 09:30N 48°12' W 123°29'5 9.4
2017-May-10 09:00N 48°13' W 123°36'5 9.3
2017-May-10 08:30N 48°13' W 123°43'713.4
2017-May-10 08:00N 48°13' W 123°53'612.9
2017-May-10 07:30N 48°16' W 124°02'713.5
2017-May-10 07:00N 48°18' W 124°11'713.1
2017-May-10 06:30N 48°21' W 124°20'712.9
2017-May-10 06:00N 48°24' W 124°29'612.7
2017-May-10 05:30N 48°27' W 124°37'612.1
2017-May-10 05:00N 48°28' W 124°46'612.2
2017-May-10 04:30N 48°28' W 124°55'611.8
2017-May-10 04:00N 48°25' W 125°02'713.0
2017-May-10 03:30N 48°19' W 125°05'612.7
2017-May-10 03:00N 48°13' W 125°08'816.4
2017-May-10 02:30N 48°05' W 125°12'4916.4
2017-May-09 23:32N 47°16' W 125°15'848.0
2017-May-09 23:22N 47°08' W 125°14'1 1.5
2017-May-09 23:00N 47°07' W 125°14'917.2
2017-May-09 22:30N 46°59' W 125°13'917.2
2017-May-09 22:00N 46°50' W 125°13'917.2
2017-May-09 21:30N 46°41' W 125°12'917.2
2017-May-09 21:00N 46°33' W 125°12'1117.3
2017-May-09 20:22N 46°22' W 125°11'617.2
2017-May-09 20:00N 46°16' W 125°10'917.5
2017-May-09 19:30N 46°07' W 125°10'917.4
2017-May-09 19:00N 45°58' W 125°09'917.5
2017-May-09 18:30N 45°49' W 125°09'917.5
2017-May-09 18:00N 45°41' W 125°08'917.6
2017-May-09 17:30N 45°32' W 125°07'917.5
2017-May-09 17:00N 45°23' W 125°07'917.2
2017-May-09 16:30N 45°15' W 125°06'917.2
2017-May-09 16:00N 45°06' W 125°05'917.2
2017-May-09 15:30N 44°58' W 125°05'917.1
2017-May-09 15:00N 44°49' W 125°04'917.1
2017-May-09 14:30N 44°40' W 125°03'1717.0
2017-May-09 13:30N 44°24' W 125°02'1117.9
2017-May-09 12:54N 44°13' W 125°01'513.9
2017-May-09 12:30N 44°07' W 125°01'816.6
2017-May-09 12:00N 43°59' W 125°00'918.1
2017-May-09 11:30N 43°50' W 124°60'918.0
2017-May-09 11:00N 43°41' W 124°59'918.4
2017-May-09 10:30N 43°32' W 124°58'918.3
2017-May-09 10:00N 43°23' W 124°58'918.1
2017-May-09 09:30N 43°14' W 124°57'918.2
2017-May-09 09:00N 43°04' W 124°56'918.3
2017-May-09 08:30N 42°55' W 124°56'918.2
2017-May-09 08:00N 42°46' W 124°55'918.1
2017-May-09 07:30N 42°37' W 124°54'918.0
2017-May-09 07:00N 42°28' W 124°52'917.8
2017-May-09 06:30N 42°20' W 124°51'917.7
2017-May-09 06:00N 42°11' W 124°49'917.5
2017-May-09 05:30N 42°02' W 124°48'917.2
2017-May-09 05:00N 41°54' W 124°47'817.0
2017-May-09 04:30N 41°45' W 124°45'1817.1
2017-May-09 03:28N 41°27' W 124°42'917.4
2017-May-09 02:55N 41°18' W 124°41'15717.1
2017-May-08 17:45N 38°47' W 123°43'417.7
2017-May-08 17:30N 38°43' W 123°41'917.6
2017-May-08 17:00N 38°36' W 123°36'917.1
2017-May-08 16:30N 38°28' W 123°32'917.1
2017-May-08 16:00N 38°20' W 123°27'917.2
2017-May-08 15:30N 38°12' W 123°22'917.5
2017-May-08 15:00N 38°05' W 123°16'918.0
2017-May-08 14:30N 37°58' W 123°08'1818.3
2017-May-08 13:30N 37°49' W 122°48'815.1
2017-May-08 13:00N 37°46' W 122°40'713.8
2017-May-08 12:30N 37°48' W 122°32'611.7
2017-May-08 12:00N 37°49' W 122°24'0 0.1
2017-May-08 11:28N 37°48' W 122°24'0 0.0
2017-May-08 10:58N 37°48' W 122°24'0 0.0
2017-May-08 10:28N 37°48' W 122°24'0 0.0
2017-May-08 09:58N 37°48' W 122°24'0 0.0
2017-May-08 09:28N 37°48' W 122°24'0 0.0
2017-May-08 08:58N 37°48' W 122°24'0 0.0
2017-May-08 08:28N 37°48' W 122°24'0 0.0
2017-May-08 07:58N 37°48' W 122°24'0 0.0
2017-May-08 07:28N 37°48' W 122°24'0 0.0
2017-May-08 06:58N 37°48' W 122°24'0 0.0
2017-May-08 06:28N 37°48' W 122°24'0 0.0
2017-May-08 05:58N 37°48' W 122°24'0 0.0
2017-May-08 05:28N 37°48' W 122°24'0 0.0
2017-May-08 04:58N 37°48' W 122°24'0 0.0
2017-May-08 04:28N 37°48' W 122°24'0 0.0
2017-May-08 03:58N 37°48' W 122°24'0 0.0
2017-May-08 03:28N 37°48' W 122°24'0 0.0
2017-May-08 02:58N 37°48' W 122°24'0 0.0
2017-May-08 02:28N 37°48' W 122°24'0 0.0
2017-May-08 01:58N 37°48' W 122°24'0 0.0
2017-May-08 01:29N 37°48' W 122°24'0 0.0
2017-May-08 00:59N 37°48' W 122°24'0 0.0
2017-May-08 00:29N 37°48' W 122°24'0 0.0
2017-May-07 23:59N 37°48' W 122°24'0 0.0
2017-May-07 23:29N 37°48' W 122°24'0 0.0
2017-May-07 22:59N 37°48' W 122°24'0 0.0
2017-May-07 22:29N 37°48' W 122°24'0 0.0
2017-May-07 21:59N 37°48' W 122°24'0 0.0
2017-May-07 21:29N 37°48' W 122°24'0 0.0
2017-May-07 20:59N 37°48' W 122°24'0 0.0
2017-May-07 20:29N 37°48' W 122°24'0 0.0
2017-May-07 19:59N 37°48' W 122°24'0 0.0
2017-May-07 19:29N 37°48' W 122°24'0 0.0
2017-May-07 18:59N 37°48' W 122°24'0 0.0
2017-May-07 18:29N 37°48' W 122°24'0 0.0
2017-May-07 17:59N 37°48' W 122°24'0 0.0
2017-May-07 17:29N 37°48' W 122°24'0 0.0
2017-May-07 16:59N 37°48' W 122°24'0 0.0
2017-May-07 16:29N 37°48' W 122°24'0 0.0
2017-May-07 15:59N 37°48' W 122°24'0 0.0
2017-May-07 15:29N 37°48' W 122°24'0 0.0
2017-May-07 14:59N 37°48' W 122°24'0 0.0
2017-May-07 14:29N 37°48' W 122°24'0 0.0
2017-May-07 13:29N 37°48' W 122°24'0 0.0
2017-May-07 12:59N 37°48' W 122°24'0 0.0
2017-May-07 12:29N 37°48' W 122°24'0 0.0
2017-May-07 11:59N 37°48' W 122°24'0 0.0
2017-May-07 11:29N 37°48' W 122°24'0 0.0
2017-May-07 10:59N 37°48' W 122°24'0 0.0
2017-May-07 10:29N 37°48' W 122°24'0 0.0
2017-May-07 09:59N 37°48' W 122°24'0 0.0
2017-May-07 09:29N 37°48' W 122°24'0 0.0
2017-May-07 08:59N 37°48' W 122°24'0 0.0
2017-May-07 08:29N 37°48' W 122°24'0 0.0
2017-May-07 07:59N 37°48' W 122°24'0 0.0
2017-May-07 07:29N 37°48' W 122°24'0 0.0
2017-May-07 06:59N 37°48' W 122°24'0 0.0
2017-May-07 06:29N 37°48' W 122°24'0 0.0
2017-May-07 05:59N 37°48' W 122°24'0 0.0
2017-May-07 05:29N 37°48' W 122°24'0 0.0
2017-May-07 04:59N 37°48' W 122°24'0 0.0
2017-May-07 04:29N 37°48' W 122°24'0 0.0
2017-May-07 03:59N 37°48' W 122°24'0 0.0
2017-May-07 03:29N 37°48' W 122°24'0 0.0
2017-May-07 02:59N 37°48' W 122°24'0 0.0
2017-May-07 02:29N 37°48' W 122°24'0 0.0
2017-May-07 01:59N 37°48' W 122°24'0 0.0
2017-May-07 01:29N 37°48' W 122°24'0 0.0
2017-May-07 00:59N 37°48' W 122°24'0 0.0
2017-May-07 00:29N 37°48' W 122°24'0 0.0
2017-May-07 00:01N 37°48' W 122°24'0 0.0
2017-May-06 23:30N 37°48' W 122°24'0 0.0
2017-May-06 23:00N 37°48' W 122°24'0 0.3
2017-May-06 22:31N 37°49' W 122°24'1 2.0
2017-May-06 22:01N 37°49' W 122°26'2 4.1
2017-May-06 21:31N 37°49' W 122°28'611.2
2017-May-06 21:00N 37°47' W 122°35'510.3
2017-May-06 20:30N 37°44' W 122°40'5 9.3
2017-May-06 20:01N 37°39' W 122°40'510.9
2017-May-06 19:30N 37°34' W 122°40'510.6
2017-May-06 19:00N 37°29' W 122°40'713.7
2017-May-06 18:30N 37°22' W 122°39'713.8
2017-May-06 18:01N 37°15' W 122°39'713.5
2017-May-06 17:30N 37°08' W 122°36'713.3
2017-May-06 17:01N 37°02' W 122°33'713.6
2017-May-06 16:31N 36°56' W 122°30'713.4
2017-May-06 16:00N 36°50' W 122°28'713.9
2017-May-06 15:30N 36°43' W 122°25'714.1
2017-May-06 15:00N 36°37' W 122°21'1414.4
2017-May-06 14:00N 36°23' W 122°14'714.5
2017-May-06 13:30N 36°17' W 122°11'714.5
2017-May-06 13:00N 36°10' W 122°07'713.9
2017-May-06 12:30N 36°04' W 122°02'713.7
2017-May-06 12:00N 35°58' W 121°58'714.1
2017-May-06 11:30N 35°52' W 121°54'714.5
2017-May-06 11:00N 35°46' W 121°49'714.7
2017-May-06 10:30N 35°40' W 121°45'714.0
2017-May-06 10:00N 35°34' W 121°40'714.1
2017-May-06 09:29N 35°27' W 121°35'713.9
2017-May-06 09:01N 35°22' W 121°31'714.2
2017-May-06 08:30N 35°15' W 121°27'714.5
2017-May-06 08:00N 35°09' W 121°23'714.6
2017-May-06 07:30N 35°03' W 121°18'714.6
2017-May-06 07:00N 34°56' W 121°14'714.2
2017-May-06 06:30N 34°50' W 121°09'713.2
2017-May-06 06:00N 34°45' W 121°05'714.5
2017-May-06 05:30N 34°39' W 121°00'815.0
2017-May-06 05:00N 34°32' W 120°55'815.3
2017-May-06 04:30N 34°26' W 120°50'816.1
2017-May-06 03:59N 34°24' W 120°40'1018.6
2017-May-06 03:28N 34°21' W 120°29'919.0
2017-May-06 03:00N 34°18' W 120°19'919.1
2017-May-06 02:30N 34°16' W 120°08'1019.1
2017-May-06 02:00N 34°14' W 119°57'1019.1
2017-May-06 01:30N 34°11' W 119°45'918.9
2017-May-06 01:00N 34°09' W 119°34'1019.5
2017-May-06 00:30N 34°06' W 119°23'1019.3
2017-May-06 00:00N 34°03' W 119°12'1019.2
2017-May-05 23:30N 33°58' W 119°02'1019.2
2017-May-05 23:00N 33°53' W 118°52'1019.2
2017-May-05 22:30N 33°48' W 118°42'1019.4
2017-May-05 22:00N 33°44' W 118°32'1019.1
2017-May-05 21:30N 33°39' W 118°22'713.1
2017-May-05 21:00N 33°42' W 118°15'2 3.2
2017-May-05 20:30N 33°43' W 118°17'0 0.0
2017-May-05 19:59N 33°43' W 118°17'0 0.0
2017-May-05 19:29N 33°43' W 118°17'0 0.0
2017-May-05 18:56N 33°43' W 118°17'0 0.0
2017-May-05 18:23N 33°43' W 118°17'0 0.0
2017-May-05 17:59N 33°43' W 118°17'0 0.0
2017-May-05 17:29N 33°43' W 118°17'0 0.0
2017-May-05 16:59N 33°43' W 118°17'0 0.0
2017-May-05 16:29N 33°43' W 118°17'0 0.0
2017-May-05 15:56N 33°43' W 118°17'0 0.0
2017-May-05 15:29N 33°43' W 118°17'0 0.0
2017-May-05 14:59N 33°43' W 118°17'0 0.0
2017-May-05 13:59N 33°43' W 118°17'0 0.0
2017-May-05 13:29N 33°43' W 118°17'0 0.0
2017-May-05 12:59N 33°43' W 118°17'0 0.0
2017-May-05 12:29N 33°43' W 118°17'0 0.0
2017-May-05 11:59N 33°43' W 118°17'  
Track history (hours):
 
Tides and Currents Weather Stations Pressure Air Temp Water Temp Dewpoint Dewpoint Depression Visibility Wind Speed Wind Dir Waves Ship Positions

Europa

Operator: Hapag-Lloyd Container Line

Last reported at 2017-May-15 11:46 UTC. Time now 2017-May-28 06:45 UTC.
Position N 52°44' W 129°04'.
Warning: this ship's position is 12 days out of date.

Length 199 m; draft 6.3 m.

Type: Passenger vessel. MMSI: 308007000.

Date/timePositionNaut miles runAvg speedWind from/ knotsBaromVisibWave heightAir tempDewpointWater temp
2017-May-15 11:46N 52°44' W 129°04'516.9
2017-May-15 11:30N 52°40' W 128°58'816.5
2017-May-15 11:00N 52°33' W 128°53'816.5
2017-May-15 10:30N 52°25' W 128°51'816.1
2017-May-15 10:00N 52°17' W 128°49'5 9.1
2017-May-15 09:30N 52°12' W 128°48'4 8.9
2017-May-15 09:00N 52°08' W 128°47'5 9.1
2017-May-15 08:30N 52°04' W 128°46'4 8.9
2017-May-15 08:00N 51°59' W 128°44'4 8.7
2017-May-15 07:30N 51°55' W 128°43'4 8.7
2017-May-15 07:00N 51°51' W 128°42'4 8.8
2017-May-15 06:30N 51°46' W 128°40'4 8.8
2017-May-15 06:00N 51°42' W 128°39'4 7.8
2017-May-15 05:30N 51°39' W 128°35'4 7.1
2017-May-15 05:00N 51°37' W 128°31'4 7.3
2017-May-15 04:30N 51°33' W 128°28'4 8.0
2017-May-15 04:00N 51°30' W 128°27'4 8.3
2017-May-15 03:30N 51°26' W 128°25'4 8.5
2017-May-15 03:00N 51°21' W 128°23'4 8.5
2017-May-15 02:30N 51°17' W 128°21'4 8.3
2017-May-15 02:00N 51°14' W 128°18'4 8.4
2017-May-15 01:30N 51°11' W 128°12'4 8.3
2017-May-15 01:00N 51°09' W 128°07'4 8.3
2017-May-15 00:30N 51°06' W 128°02'4 8.3
2017-May-15 00:00N 51°04' W 127°57'4 8.1
2017-May-14 23:30N 51°01' W 127°52'611.2
2017-May-14 23:00N 50°58' W 127°45'815.7
2017-May-14 22:30N 50°53' W 127°35'815.8
2017-May-14 22:00N 50°48' W 127°25'816.3
2017-May-14 21:30N 50°42' W 127°16'815.9
2017-May-14 21:00N 50°37' W 127°06'610.9
2017-May-14 20:29N 50°35' W 126°58'5 9.0
2017-May-14 19:54N 50°34' W 126°50'513.1
2017-May-14 19:30N 50°32' W 126°42'3614.0
2017-May-14 16:54N 50°23' W 125°47'914.5
2017-May-14 16:18N 50°22' W 125°33'515.5
2017-May-14 16:00N 50°20' W 125°27'713.6
2017-May-14 15:30N 50°14' W 125°23'713.3
2017-May-14 15:01N 50°08' W 125°21'612.8
2017-May-14 14:30N 50°03' W 125°14'1110.4
2017-May-14 13:30N 49°54' W 125°04'510.1
2017-May-14 13:00N 49°51' W 124°59'510.1
2017-May-14 12:30N 49°48' W 124°53'510.1
2017-May-14 12:00N 49°44' W 124°48'510.4
2017-May-14 11:30N 49°40' W 124°42'510.8
2017-May-14 11:00N 49°36' W 124°37'510.1
2017-May-14 10:30N 49°32' W 124°32'510.0
2017-May-14 10:00N 49°28' W 124°27'1610.4
2017-May-14 08:29N 49°22' W 124°04'510.0
2017-May-14 07:59N 49°21' W 123°57'5 9.9
2017-May-14 07:30N 49°20' W 123°50'510.2
2017-May-14 07:00N 49°19' W 123°42'510.3
2017-May-14 06:30N 49°19' W 123°34'510.3
2017-May-14 06:00N 49°19' W 123°26'510.7
2017-May-14 05:30N 49°19' W 123°18'510.8
2017-May-14 05:00N 49°19' W 123°10'3 5.2
2017-May-14 04:30N 49°17' W 123°07'0 0.0
2017-May-14 04:00N 49°17' W 123°07'0 0.0
2017-May-14 03:30N 49°17' W 123°07'0 0.0
2017-May-14 03:00N 49°17' W 123°07'0 0.0
2017-May-14 02:30N 49°17' W 123°07'0 0.0
2017-May-14 02:00N 49°17' W 123°07'0 0.6
2017-May-14 01:31N 49°18' W 123°06'0 0.8
2017-May-14 00:59N 49°18' W 123°06'0 0.2
2017-May-14 00:29N 49°18' W 123°06'0 0.0
2017-May-13 23:59N 49°18' W 123°06'0 0.1
2017-May-13 23:29N 49°18' W 123°06'0 0.1
2017-May-13 22:59N 49°18' W 123°06'0 0.0
2017-May-13 22:29N 49°18' W 123°06'0 0.1
2017-May-13 21:59N 49°18' W 123°06'0 0.0
2017-May-13 21:29N 49°18' W 123°06'0 0.0
2017-May-13 20:59N 49°18' W 123°06'0 0.1
2017-May-13 20:29N 49°18' W 123°06'0 0.0
2017-May-13 19:59N 49°18' W 123°06'0 0.0
2017-May-13 19:29N 49°18' W 123°06'0 0.2
2017-May-13 18:59N 49°18' W 123°06'0 0.0
2017-May-13 18:29N 49°18' W 123°06'0 0.1
2017-May-13 17:59N 49°18' W 123°06'0 0.0
2017-May-13 17:29N 49°18' W 123°06'0 0.0
2017-May-13 16:56N 49°18' W 123°06'0 0.1
2017-May-13 16:30N 49°18' W 123°06'3 6.6
2017-May-13 16:00N 49°19' W 123°10'1 2.7
2017-May-13 15:30N 49°20' W 123°12'0 0.0
2017-May-13 15:00N 49°20' W 123°12'0 0.3
2017-May-13 14:31N 49°20' W 123°12'4 4.3
2017-May-13 13:30N 49°18' W 123°06'1 1.0
2017-May-13 13:00N 49°18' W 123°06'1 1.1
2017-May-13 12:29N 49°17' W 123°07'0 0.0
2017-May-13 11:59N 49°17' W 123°07'0 0.0
2017-May-13 11:29N 49°17' W 123°07'0 0.0
2017-May-13 10:59N 49°17' W 123°07'0 0.0
2017-May-13 10:29N 49°17' W 123°07'0 0.0
2017-May-13 09:59N 49°17' W 123°07'0 0.0
2017-May-13 09:29N 49°17' W 123°07'0 0.0
2017-May-13 08:59N 49°17' W 123°07'0 0.0
2017-May-13 08:29N 49°17' W 123°07'0 0.0
2017-May-13 07:59N 49°17' W 123°07'0 0.0
2017-May-13 07:29N 49°17' W 123°07'0 0.0
2017-May-13 06:59N 49°17' W 123°07'0 0.0
2017-May-13 06:29N 49°17' W 123°07'0 0.0
2017-May-13 05:59N 49°17' W 123°07'0 0.0
2017-May-13 05:29N 49°17' W 123°07'0 0.0
2017-May-13 04:59N 49°17' W 123°07'0 0.0
2017-May-13 04:29N 49°17' W 123°07'0 0.0
2017-May-13 03:59N 49°17' W 123°07'0 0.0
2017-May-13 03:29N 49°17' W 123°07'0 0.0
2017-May-13 02:59N 49°17' W 123°07'0 0.0
2017-May-13 02:29N 49°17' W 123°07'0 0.0
2017-May-13 01:59N 49°17' W 123°07'0 0.0
2017-May-13 01:29N 49°17' W 123°07'0 0.0
2017-May-13 00:59N 49°17' W 123°07'0 0.0
2017-May-13 00:29N 49°17' W 123°07'0 0.0
2017-May-12 23:59N 49°17' W 123°07'0 0.0
2017-May-12 23:29N 49°17' W 123°07'0 0.0
2017-May-12 22:59N 49°17' W 123°07'0 0.0
2017-May-12 22:29N 49°17' W 123°07'0 0.0
2017-May-12 21:59N 49°17' W 123°07'0 0.0
2017-May-12 21:29N 49°17' W 123°07'0 0.0
2017-May-12 20:59N 49°17' W 123°07'0 0.0
2017-May-12 20:29N 49°17' W 123°07'0 0.0
2017-May-12 19:59N 49°17' W 123°07'0 0.0
2017-May-12 19:29N 49°17' W 123°07'0 0.0
2017-May-12 18:59N 49°17' W 123°07'0 0.0
2017-May-12 18:29N 49°17' W 123°07'0 0.0
2017-May-12 17:59N 49°17' W 123°07'0 0.0
2017-May-12 17:29N 49°17' W 123°07'0 0.0
2017-May-12 16:59N 49°17' W 123°07'0 0.0
2017-May-12 16:29N 49°17' W 123°07'0 0.0
2017-May-12 15:59N 49°17' W 123°07'0 0.0
2017-May-12 15:29N 49°17' W 123°07'0 0.0
2017-May-12 14:59N 49°17' W 123°07'0 0.0
2017-May-12 14:29N 49°17' W 123°07'2 1.8
2017-May-12 13:30N 49°19' W 123°08'5 9.6
2017-May-12 13:00N 49°18' W 123°16'5 9.8
2017-May-12 12:30N 49°14' W 123°19'510.1
2017-May-12 12:01N 49°09' W 123°20'510.3
2017-May-12 11:30N 49°04' W 123°20'611.1
2017-May-12 11:01N 48°60' W 123°14'713.1
2017-May-12 10:30N 48°55' W 123°07'714.0
2017-May-12 10:01N 48°49' W 123°01'612.6
2017-May-12 09:30N 48°44' W 123°07'713.5
2017-May-12 09:01N 48°40' W 123°15'816.6
2017-May-12 08:31N 48°32' W 123°12'815.1
2017-May-12 08:01N 48°25' W 123°11'714.5
2017-May-12 07:30N 48°22' W 123°21'3 6.5
2017-May-12 07:00N 48°25' W 123°24'0 0.3
2017-May-12 06:29N 48°25' W 123°23'0 0.0
2017-May-12 05:59N 48°25' W 123°23'0 0.0
2017-May-12 05:29N 48°25' W 123°23'0 0.0
2017-May-12 04:59N 48°25' W 123°23'0 0.0
2017-May-12 04:29N 48°25' W 123°23'0 0.0
2017-May-12 03:59N 48°25' W 123°23'0 0.0
2017-May-12 03:26N 48°25' W 123°23'0 0.0
2017-May-12 02:59N 48°25' W 123°23'0 0.0
2017-May-12 02:29N 48°25' W 123°23'0 0.0
2017-May-12 01:59N 48°25' W 123°23'0 0.0
2017-May-12 01:29N 48°25' W 123°23'0 0.0
2017-May-12 00:59N 48°25' W 123°23'0 0.0
2017-May-12 00:29N 48°25' W 123°23'0 0.0
2017-May-11 23:59N 48°25' W 123°23'0 0.0
2017-May-11 23:29N 48°25' W 123°23'0 0.0
2017-May-11 22:59N 48°25' W 123°23'0 0.0
2017-May-11 22:29N 48°25' W 123°23'0 0.0
2017-May-11 21:59N 48°25' W 123°23'0 0.0
2017-May-11 21:29N 48°25' W 123°23'0 0.0
2017-May-11 20:59N 48°25' W 123°23'0 0.0
2017-May-11 20:29N 48°25' W 123°23'0 0.0
2017-May-11 19:59N 48°25' W 123°23'0 0.0
2017-May-11 19:29N 48°25' W 123°23'0 0.0
2017-May-11 18:59N 48°25' W 123°23'0 0.0
2017-May-11 18:29N 48°25' W 123°23'0 0.0
2017-May-11 17:59N 48°25' W 123°23'0 0.0
2017-May-11 17:29N 48°25' W 123°23'0 0.0
2017-May-11 16:59N 48°25' W 123°23'0 0.0
2017-May-11 16:29N 48°25' W 123°23'0 0.0
2017-May-11 15:59N 48°25' W 123°23'0 0.0
2017-May-11 15:29N 48°25' W 123°23'0 0.0
2017-May-11 15:00N 48°25' W 123°23'0 0.2
2017-May-11 14:00N 48°25' W 123°24'2 4.8
2017-May-11 13:30N 48°23' W 123°23'2 3.8
2017-May-11 12:59N 48°21' W 123°22'0 0.0
2017-May-11 12:29N 48°21' W 123°22'0 0.0
2017-May-11 11:59N 48°21' W 123°22'0 0.0
2017-May-11 11:29N 48°21' W 123°22'0 0.0
2017-May-11 10:59N 48°21' W 123°22'0 0.0
2017-May-11 10:29N 48°21' W 123°22'0 0.0
2017-May-11 09:59N 48°21' W 123°22'0 0.0
2017-May-11 09:29N 48°21' W 123°22'0 0.1
2017-May-11 08:59N 48°21' W 123°22'0 0.0
2017-May-11 08:29N 48°21' W 123°22'0 0.0
2017-May-11 07:59N 48°21' W 123°22'0 1.0
2017-May-11 07:31N 48°20' W 123°22'0 0.5
2017-May-11 07:01N 48°20' W 123°22'3 5.0
2017-May-11 06:30N 48°18' W 123°24'4 7.7
2017-May-11 06:00N 48°15' W 123°27'3 6.3
2017-May-11 05:30N 48°12' W 123°25'4 8.7
2017-May-11 05:00N 48°09' W 123°21'714.7
2017-May-11 04:31N 48°12' W 123°11'917.6
2017-May-11 04:00N 48°12' W 122°58'917.9
2017-May-11 03:29N 48°10' W 122°44'817.8
2017-May-11 03:00N 48°02' W 122°38'917.6
2017-May-11 02:30N 47°55' W 122°30'917.4
2017-May-11 02:00N 47°47' W 122°26'816.0
2017-May-11 01:30N 47°39' W 122°27'5 9.2
2017-May-11 00:58N 47°37' W 122°21'0 0.1
2017-May-11 00:28N 47°37' W 122°21'0 0.0
2017-May-10 23:59N 47°37' W 122°21'0 0.0
2017-May-10 23:28N 47°37' W 122°21'0 0.0
2017-May-10 22:55N 47°37' W 122°21'0 0.0
2017-May-10 22:28N 47°37' W 122°21'0 0.0
2017-May-10 21:59N 47°37' W 122°21'0 0.0
2017-May-10 21:28N 47°37' W 122°21'0 0.0
2017-May-10 20:59N 47°37' W 122°21'0 0.0
2017-May-10 20:29N 47°37' W 122°21'0 0.0
2017-May-10 19:58N 47°37' W 122°21'0 0.0
2017-May-10 19:28N 47°37' W 122°21'0 0.0
2017-May-10 18:58N 47°37' W 122°21'0 0.0
2017-May-10 18:28N 47°37' W 122°21'0 0.0
2017-May-10 17:58N 47°37' W 122°21'0 0.0
2017-May-10 17:28N 47°37' W 122°21'0 0.0
2017-May-10 17:00N 47°37' W 122°21'0 0.0
2017-May-10 16:30N 47°37' W 122°21'0 0.0
2017-May-10 16:00N 47°37' W 122°21'0 0.0
2017-May-10 15:30N 47°37' W 122°21'0 0.0
2017-May-10 15:00N 47°37' W 122°21'6 5.6
2017-May-10 14:01N 47°39' W 122°28'612.7
2017-May-10 13:30N 47°46' W 122°27'713.1
2017-May-10 13:00N 47°52' W 122°29'611.9
2017-May-10 12:30N 47°57' W 122°34'816.3
2017-May-10 12:00N 48°04' W 122°39'916.9
2017-May-10 11:30N 48°11' W 122°48'917.6
2017-May-10 11:00N 48°12' W 123°01'816.9
2017-May-10 10:30N 48°11' W 123°13'714.3
2017-May-10 10:00N 48°10' W 123°24'4 7.7
2017-May-10 09:30N 48°12' W 123°29'5 9.4
2017-May-10 09:00N 48°13' W 123°36'5 9.3
2017-May-10 08:30N 48°13' W 123°43'713.4
2017-May-10 08:00N 48°13' W 123°53'612.9
2017-May-10 07:30N 48°16' W 124°02'713.5
2017-May-10 07:00N 48°18' W 124°11'713.1
2017-May-10 06:30N 48°21' W 124°20'712.9
2017-May-10 06:00N 48°24' W 124°29'612.7
2017-May-10 05:30N 48°27' W 124°37'612.1
2017-May-10 05:00N 48°28' W 124°46'612.2
2017-May-10 04:30N 48°28' W 124°55'611.8
2017-May-10 04:00N 48°25' W 125°02'713.0
2017-May-10 03:30N 48°19' W 125°05'612.7
2017-May-10 03:00N 48°13' W 125°08'816.4
2017-May-10 02:30N 48°05' W 125°12'4916.4
2017-May-09 23:32N 47°16' W 125°15'848.0
2017-May-09 23:22N 47°08' W 125°14'1 1.5
2017-May-09 23:00N 47°07' W 125°14'917.2
2017-May-09 22:30N 46°59' W 125°13'917.2
2017-May-09 22:00N 46°50' W 125°13'917.2
2017-May-09 21:30N 46°41' W 125°12'917.2
2017-May-09 21:00N 46°33' W 125°12'1117.3
2017-May-09 20:22N 46°22' W 125°11'617.2
2017-May-09 20:00N 46°16' W 125°10'917.5
2017-May-09 19:30N 46°07' W 125°10'917.4
2017-May-09 19:00N 45°58' W 125°09'917.5
2017-May-09 18:30N 45°49' W 125°09'917.5
2017-May-09 18:00N 45°41' W 125°08'917.6
2017-May-09 17:30N 45°32' W 125°07'917.5
2017-May-09 17:00N 45°23' W 125°07'917.2
2017-May-09 16:30N 45°15' W 125°06'917.2
2017-May-09 16:00N 45°06' W 125°05'917.2
2017-May-09 15:30N 44°58' W 125°05'917.1
2017-May-09 15:00N 44°49' W 125°04'917.1
2017-May-09 14:30N 44°40' W 125°03'1717.0
2017-May-09 13:30N 44°24' W 125°02'1117.9
2017-May-09 12:54N 44°13' W 125°01'513.9
2017-May-09 12:30N 44°07' W 125°01'816.6
2017-May-09 12:00N 43°59' W 125°00'918.1
2017-May-09 11:30N 43°50' W 124°60'918.0
2017-May-09 11:00N 43°41' W 124°59'918.4
2017-May-09 10:30N 43°32' W 124°58'918.3
2017-May-09 10:00N 43°23' W 124°58'918.1
2017-May-09 09:30N 43°14' W 124°57'918.2
2017-May-09 09:00N 43°04' W 124°56'918.3
2017-May-09 08:30N 42°55' W 124°56'918.2
2017-May-09 08:00N 42°46' W 124°55'918.1
2017-May-09 07:30N 42°37' W 124°54'918.0
2017-May-09 07:00N 42°28' W 124°52'917.8
2017-May-09 06:30N 42°20' W 124°51'917.7
2017-May-09 06:00N 42°11' W 124°49'917.5
2017-May-09 05:30N 42°02' W 124°48'917.2
2017-May-09 05:00N 41°54' W 124°47'817.0
2017-May-09 04:30N 41°45' W 124°45'1817.1
2017-May-09 03:28N 41°27' W 124°42'917.4
2017-May-09 02:55N 41°18' W 124°41'15717.1
2017-May-08 17:45N 38°47' W 123°43'417.7
2017-May-08 17:30N 38°43' W 123°41'917.6
2017-May-08 17:00N 38°36' W 123°36'917.1
2017-May-08 16:30N 38°28' W 123°32'917.1
2017-May-08 16:00N 38°20' W 123°27'917.2
2017-May-08 15:30N 38°12' W 123°22'917.5
2017-May-08 15:00N 38°05' W 123°16'918.0
2017-May-08 14:30N 37°58' W 123°08'1818.3
2017-May-08 13:30N 37°49' W 122°48'815.1
2017-May-08 13:00N 37°46' W 122°40'713.8
2017-May-08 12:30N 37°48' W 122°32'611.7
2017-May-08 12:00N 37°49' W 122°24'0 0.1
2017-May-08 11:28N 37°48' W 122°24'0 0.0
2017-May-08 10:58N 37°48' W 122°24'0 0.0
2017-May-08 10:28N 37°48' W 122°24'0 0.0
2017-May-08 09:58N 37°48' W 122°24'0 0.0
2017-May-08 09:28N 37°48' W 122°24'0 0.0
2017-May-08 08:58N 37°48' W 122°24'0 0.0
2017-May-08 08:28N 37°48' W 122°24'0 0.0
2017-May-08 07:58N 37°48' W 122°24'0 0.0
2017-May-08 07:28N 37°48' W 122°24'0 0.0
2017-May-08 06:58N 37°48' W 122°24'0 0.0
2017-May-08 06:28N 37°48' W 122°24'0 0.0
2017-May-08 05:58N 37°48' W 122°24'0 0.0
2017-May-08 05:28N 37°48' W 122°24'0 0.0
2017-May-08 04:58N 37°48' W 122°24'0 0.0
2017-May-08 04:28N 37°48' W 122°24'0 0.0
2017-May-08 03:58N 37°48' W 122°24'0 0.0
2017-May-08 03:28N 37°48' W 122°24'0 0.0
2017-May-08 02:58N 37°48' W 122°24'0 0.0
2017-May-08 02:28N 37°48' W 122°24'0 0.0
2017-May-08 01:58N 37°48' W 122°24'0 0.0
2017-May-08 01:29N 37°48' W 122°24'0 0.0
2017-May-08 00:59N 37°48' W 122°24'0 0.0
2017-May-08 00:29N 37°48' W 122°24'0 0.0
2017-May-07 23:59N 37°48' W 122°24'0 0.0
2017-May-07 23:29N 37°48' W 122°24'0 0.0
2017-May-07 22:59N 37°48' W 122°24'0 0.0
2017-May-07 22:29N 37°48' W 122°24'0 0.0
2017-May-07 21:59N 37°48' W 122°24'0 0.0
2017-May-07 21:29N 37°48' W 122°24'0 0.0
2017-May-07 20:59N 37°48' W 122°24'0 0.0
2017-May-07 20:29N 37°48' W 122°24'0 0.0
2017-May-07 19:59N 37°48' W 122°24'0 0.0
2017-May-07 19:29N 37°48' W 122°24'0 0.0
2017-May-07 18:59N 37°48' W 122°24'0 0.0
2017-May-07 18:29N 37°48' W 122°24'0 0.0
2017-May-07 17:59N 37°48' W 122°24'0 0.0
2017-May-07 17:29N 37°48' W 122°24'0 0.0
2017-May-07 16:59N 37°48' W 122°24'0 0.0
2017-May-07 16:29N 37°48' W 122°24'0 0.0
2017-May-07 15:59N 37°48' W 122°24'0 0.0
2017-May-07 15:29N 37°48' W 122°24'0 0.0
2017-May-07 14:59N 37°48' W 122°24'0 0.0
2017-May-07 14:29N 37°48' W 122°24'0 0.0
2017-May-07 13:29N 37°48' W 122°24'0 0.0
2017-May-07 12:59N 37°48' W 122°24'0 0.0
2017-May-07 12:29N 37°48' W 122°24'0 0.0
2017-May-07 11:59N 37°48' W 122°24'0 0.0
2017-May-07 11:29N 37°48' W 122°24'0 0.0
2017-May-07 10:59N 37°48' W 122°24'0 0.0
2017-May-07 10:29N 37°48' W 122°24'0 0.0
2017-May-07 09:59N 37°48' W 122°24'0 0.0
2017-May-07 09:29N 37°48' W 122°24'0 0.0
2017-May-07 08:59N 37°48' W 122°24'0 0.0
2017-May-07 08:29N 37°48' W 122°24'0 0.0
2017-May-07 07:59N 37°48' W 122°24'0 0.0
2017-May-07 07:29N 37°48' W 122°24'0 0.0
2017-May-07 06:59N 37°48' W 122°24'0 0.0
2017-May-07 06:29N 37°48' W 122°24'0 0.0
2017-May-07 05:59N 37°48' W 122°24'0 0.0
2017-May-07 05:29N 37°48' W 122°24'0 0.0
2017-May-07 04:59N 37°48' W 122°24'0 0.0
2017-May-07 04:29N 37°48' W 122°24'0 0.0
2017-May-07 03:59N 37°48' W 122°24'0 0.0
2017-May-07 03:29N 37°48' W 122°24'0 0.0
2017-May-07 02:59N 37°48' W 122°24'0 0.0
2017-May-07 02:29N 37°48' W 122°24'0 0.0
2017-May-07 01:59N 37°48' W 122°24'0 0.0
2017-May-07 01:29N 37°48' W 122°24'0 0.0
2017-May-07 00:59N 37°48' W 122°24'0 0.0
2017-May-07 00:29N 37°48' W 122°24'0 0.0
2017-May-07 00:01N 37°48' W 122°24'0 0.0
2017-May-06 23:30N 37°48' W 122°24'0 0.0
2017-May-06 23:00N 37°48' W 122°24'0 0.3
2017-May-06 22:31N 37°49' W 122°24'1 2.0
2017-May-06 22:01N 37°49' W 122°26'2 4.1
2017-May-06 21:31N 37°49' W 122°28'611.2
2017-May-06 21:00N 37°47' W 122°35'510.3
2017-May-06 20:30N 37°44' W 122°40'5 9.3
2017-May-06 20:01N 37°39' W 122°40'510.9
2017-May-06 19:30N 37°34' W 122°40'510.6
2017-May-06 19:00N 37°29' W 122°40'713.7
2017-May-06 18:30N 37°22' W 122°39'713.8
2017-May-06 18:01N 37°15' W 122°39'713.5
2017-May-06 17:30N 37°08' W 122°36'713.3
2017-May-06 17:01N 37°02' W 122°33'713.6
2017-May-06 16:31N 36°56' W 122°30'713.4
2017-May-06 16:00N 36°50' W 122°28'713.9
2017-May-06 15:30N 36°43' W 122°25'714.1
2017-May-06 15:00N 36°37' W 122°21'1414.4
2017-May-06 14:00N 36°23' W 122°14'714.5
2017-May-06 13:30N 36°17' W 122°11'714.5
2017-May-06 13:00N 36°10' W 122°07'713.9
2017-May-06 12:30N 36°04' W 122°02'713.7
2017-May-06 12:00N 35°58' W 121°58'714.1
2017-May-06 11:30N 35°52' W 121°54'714.5
2017-May-06 11:00N 35°46' W 121°49'714.7
2017-May-06 10:30N 35°40' W 121°45'714.0
2017-May-06 10:00N 35°34' W 121°40'714.1
2017-May-06 09:29N 35°27' W 121°35'713.9
2017-May-06 09:01N 35°22' W 121°31'714.2
2017-May-06 08:30N 35°15' W 121°27'714.5
2017-May-06 08:00N 35°09' W 121°23'714.6
2017-May-06 07:30N 35°03' W 121°18'714.6
2017-May-06 07:00N 34°56' W 121°14'714.2
2017-May-06 06:30N 34°50' W 121°09'713.2
2017-May-06 06:00N 34°45' W 121°05'714.5
2017-May-06 05:30N 34°39' W 121°00'815.0
2017-May-06 05:00N 34°32' W 120°55'815.3
2017-May-06 04:30N 34°26' W 120°50'816.1
2017-May-06 03:59N 34°24' W 120°40'1018.6
2017-May-06 03:28N 34°21' W 120°29'919.0
2017-May-06 03:00N 34°18' W 120°19'919.1
2017-May-06 02:30N 34°16' W 120°08'1019.1
2017-May-06 02:00N 34°14' W 119°57'1019.1
2017-May-06 01:30N 34°11' W 119°45'918.9
2017-May-06 01:00N 34°09' W 119°34'1019.5
2017-May-06 00:30N 34°06' W 119°23'1019.3
2017-May-06 00:00N 34°03' W 119°12'1019.2
2017-May-05 23:30N 33°58' W 119°02'1019.2
2017-May-05 23:00N 33°53' W 118°52'1019.2
2017-May-05 22:30N 33°48' W 118°42'1019.4
2017-May-05 22:00N 33°44' W 118°32'1019.1
2017-May-05 21:30N 33°39' W 118°22'713.1
2017-May-05 21:00N 33°42' W 118°15'2 3.2
2017-May-05 20:30N 33°43' W 118°17'0 0.0
2017-May-05 19:59N 33°43' W 118°17'0 0.0
2017-May-05 19:29N 33°43' W 118°17'0 0.0
2017-May-05 18:56N 33°43' W 118°17'0 0.0
2017-May-05 18:23N 33°43' W 118°17'0 0.0
2017-May-05 17:59N 33°43' W 118°17'0 0.0
2017-May-05 17:29N 33°43' W 118°17'0 0.0
2017-May-05 16:59N 33°43' W 118°17'0 0.0
2017-May-05 16:29N 33°43' W 118°17'0 0.0
2017-May-05 15:56N 33°43' W 118°17'0 0.0
2017-May-05 15:29N 33°43' W 118°17'0 0.0
2017-May-05 14:59N 33°43' W 118°17'0 0.0
2017-May-05 13:59N 33°43' W 118°17'0 0.0
2017-May-05 13:29N 33°43' W 118°17'0 0.0
2017-May-05 12:59N 33°43' W 118°17'0 0.0
2017-May-05 12:29N 33°43' W 118°17'0 0.0
2017-May-05 11:59N 33°43' W 118°17'  

Dump ship's entire track history